createdAt,value
2018-09-30T00:01:38.479Z,3.10
2018-09-30T00:04:09.053Z,3.07
2018-09-30T00:06:39.447Z,3.13
2018-09-30T00:09:09.826Z,3.53
2018-09-30T00:11:40.216Z,3.03
2018-09-30T00:14:13.331Z,3.23
2018-09-30T00:16:43.744Z,3.17
2018-09-30T00:19:16.179Z,2.97
2018-09-30T00:21:46.602Z,3.30
2018-09-30T00:24:17.769Z,3.17
2018-09-30T00:26:48.167Z,3.37
2018-09-30T00:29:19.340Z,2.87
2018-09-30T00:31:49.664Z,3.50
2018-09-30T00:34:22.077Z,3.07
2018-09-30T00:36:52.470Z,3.30
2018-09-30T00:39:22.861Z,3.17
2018-09-30T00:41:53.260Z,3.40
2018-09-30T00:44:23.656Z,3.27
2018-09-30T00:46:56.110Z,2.97
2018-09-30T00:49:26.499Z,3.40
2018-09-30T00:51:56.852Z,2.87
2018-09-30T00:54:29.018Z,3.50
2018-09-30T00:57:01.198Z,3.07
2018-09-30T00:59:31.590Z,3.80
2018-09-30T01:02:01.971Z,3.50
2018-09-30T01:04:34.412Z,3.37
2018-09-30T01:07:05.516Z,3.73
2018-09-30T01:09:35.934Z,2.70
2018-09-30T01:12:27.747Z,2.90
2018-09-30T01:14:58.125Z,3.20
2018-09-30T01:17:29.278Z,3.03
2018-09-30T01:19:59.682Z,2.63
2018-09-30T01:22:30.074Z,3.20
2018-09-30T01:25:06.614Z,3.40
2018-09-30T01:27:36.993Z,2.77
2018-09-30T01:30:07.380Z,3.63
2018-09-30T01:32:37.762Z,3.60
2018-09-30T01:35:08.165Z,3.30
2018-09-30T01:37:38.484Z,2.87
2018-09-30T01:40:27.223Z,2.80
2018-09-30T01:42:58.641Z,2.57
2018-09-30T01:45:29.018Z,2.57
2018-09-30T01:48:01.467Z,2.83
2018-09-30T01:50:31.834Z,2.93
2018-09-30T01:53:02.217Z,3.23
2018-09-30T01:55:32.551Z,2.83
2018-09-30T01:58:03.942Z,3.30
2018-09-30T02:00:35.957Z,2.97
2018-09-30T02:03:12.045Z,3.07
2018-09-30T02:06:03.787Z,3.13
2018-09-30T02:08:34.843Z,3.57
2018-09-30T02:11:05.215Z,3.07
2018-09-30T02:13:35.602Z,2.60
2018-09-30T02:16:06.001Z,3.10
2018-09-30T02:18:36.377Z,3.27
2018-09-30T02:21:07.528Z,3.23
2018-09-30T02:23:38.959Z,3.40
2018-09-30T02:26:09.344Z,3.57
2018-09-30T02:28:59.126Z,3.43
2018-09-30T02:31:30.544Z,3.47
2018-09-30T02:34:00.934Z,3.53
2018-09-30T02:36:31.346Z,3.10
2018-09-30T02:39:01.741Z,3.53
2018-09-30T02:41:32.127Z,3.77
2018-09-30T02:44:03.237Z,3.37
2018-09-30T02:46:33.641Z,3.33
2018-09-30T02:49:06.299Z,3.30
2018-09-30T02:51:37.449Z,3.30
2018-09-30T02:54:07.824Z,3.00
2018-09-30T02:56:38.217Z,3.33
2018-09-30T02:59:13.737Z,3.20
2018-09-30T03:01:44.145Z,3.03
2018-09-30T03:04:15.301Z,2.40
2018-09-30T03:09:35.227Z,3.50
2018-09-30T03:12:05.619Z,2.90
2018-09-30T03:14:36.697Z,3.20
2018-09-30T03:17:09.904Z,2.93
2018-09-30T03:19:40.207Z,3.07
2018-09-30T03:22:10.520Z,3.00
2018-09-30T03:24:41.631Z,2.50
2018-09-30T03:27:12.391Z,3.13
2018-09-30T03:29:43.544Z,2.47
2018-09-30T03:32:13.856Z,3.03
2018-09-30T03:34:44.979Z,2.90
2018-09-30T03:37:15.349Z,3.10
2018-09-30T03:39:45.747Z,3.07
2018-09-30T03:42:16.914Z,2.77
2018-09-30T03:44:47.223Z,3.07
2018-09-30T03:47:18.367Z,2.77
2018-09-30T03:49:49.526Z,3.30
2018-09-30T03:52:19.840Z,3.40
2018-09-30T03:54:50.991Z,3.03
2018-09-30T03:57:21.386Z,3.20
2018-09-30T03:59:51.770Z,3.10
2018-09-30T04:02:24.203Z,3.13
2018-09-30T04:04:54.603Z,2.70
2018-09-30T04:07:24.924Z,3.13
2018-09-30T04:09:55.255Z,3.13
2018-09-30T04:12:25.632Z,2.93
2018-09-30T04:14:56.251Z,3.43
2018-09-30T04:17:26.633Z,3.13
2018-09-30T04:19:56.968Z,2.80
2018-09-30T04:22:27.345Z,2.80
2018-09-30T04:24:57.658Z,2.73
2018-09-30T04:27:28.045Z,2.87
2018-09-30T04:29:58.425Z,3.07
2018-09-30T04:32:28.807Z,3.23
2018-09-30T04:34:59.214Z,3.20
2018-09-30T04:37:29.601Z,3.10
2018-09-30T04:39:59.914Z,3.00
2018-09-30T04:42:30.308Z,3.13
2018-09-30T04:45:00.705Z,2.93
2018-09-30T04:47:52.253Z,2.77
2018-09-30T04:50:22.626Z,2.77
2018-09-30T04:52:52.992Z,3.07
2018-09-30T04:55:23.325Z,3.90
2018-09-30T04:57:53.706Z,4.28
2018-09-30T05:00:25.104Z,3.67
2018-09-30T05:02:55.509Z,2.90
2018-09-30T05:05:27.110Z,3.00
2018-09-30T05:07:57.671Z,3.00
2018-09-30T05:10:28.067Z,2.73
2018-09-30T05:12:59.230Z,3.20
2018-09-30T05:15:29.606Z,2.70
2018-09-30T05:18:00.020Z,3.17
2018-09-30T05:20:30.336Z,2.90
2018-09-30T05:23:00.720Z,3.00
2018-09-30T05:25:31.147Z,2.53
2018-09-30T05:28:01.523Z,3.63
2018-09-30T05:30:31.899Z,3.30
2018-09-30T05:33:02.301Z,2.97
2018-09-30T05:35:32.696Z,3.30
2018-09-30T05:38:06.204Z,3.30
2018-09-30T05:40:36.542Z,3.27
2018-09-30T05:43:06.930Z,3.43
2018-09-30T05:45:37.318Z,2.97
2018-09-30T05:48:07.722Z,3.63
2018-09-30T05:50:38.049Z,3.30
2018-09-30T05:53:08.461Z,3.30
2018-09-30T05:55:38.862Z,3.33
2018-09-30T05:58:09.309Z,3.60
2018-09-30T06:00:39.626Z,3.10
2018-09-30T06:03:11.056Z,3.10
2018-09-30T06:05:41.637Z,3.40
2018-09-30T06:08:12.021Z,3.00
2018-09-30T06:10:42.421Z,3.00
2018-09-30T06:13:12.802Z,3.23
2018-09-30T06:15:43.234Z,3.20
2018-09-30T06:18:13.605Z,3.17
2018-09-30T06:20:43.981Z,3.10
2018-09-30T06:23:18.461Z,3.20
2018-09-30T06:25:48.856Z,2.90
2018-09-30T06:28:19.257Z,3.40
2018-09-30T06:31:08.952Z,3.10
2018-09-30T06:33:39.352Z,2.83
2018-09-30T06:36:13.842Z,3.50
2018-09-30T06:38:44.241Z,3.83
2018-09-30T06:41:16.658Z,3.33
2018-09-30T06:43:47.067Z,3.53
2018-09-30T06:46:17.646Z,3.87
2018-09-30T06:48:48.035Z,3.73
2018-09-30T06:51:18.426Z,3.80
2018-09-30T06:53:48.811Z,3.93
2018-09-30T06:56:20.220Z,3.90
2018-09-30T06:58:51.568Z,3.90
2018-09-30T07:01:21.936Z,3.87
2018-09-30T07:03:52.251Z,3.90
2018-09-30T07:06:24.624Z,3.50
2018-09-30T07:08:54.996Z,3.30
2018-09-30T07:11:26.583Z,3.90
2018-09-30T07:13:57.686Z,3.80
2018-09-30T07:16:28.043Z,3.70
2018-09-30T07:18:58.424Z,3.07
2018-09-30T07:21:28.801Z,3.67
2018-09-30T07:23:59.954Z,3.50
2018-09-30T07:26:30.336Z,3.80
2018-09-30T07:31:48.238Z,3.93
2018-09-30T07:34:19.322Z,4.17
2018-09-30T07:37:11.128Z,4.40
2018-09-30T07:39:41.527Z,4.47
2018-09-30T07:42:12.692Z,4.03
2018-09-30T07:44:43.090Z,3.43
2018-09-30T07:47:14.429Z,3.77
2018-09-30T07:49:44.819Z,3.70
2018-09-30T07:52:19.286Z,3.80
2018-09-30T07:54:50.453Z,3.33
2018-09-30T07:57:20.787Z,3.93
2018-09-30T07:59:51.155Z,3.63
2018-09-30T08:02:21.564Z,3.90
2018-09-30T08:04:58.089Z,3.70
2018-09-30T08:07:29.279Z,4.20
2018-09-30T08:10:01.725Z,4.20
2018-09-30T08:12:32.104Z,2.70
2018-09-30T08:15:03.560Z,3.80
2018-09-30T08:17:33.962Z,3.77
2018-09-30T08:20:05.596Z,3.40
2018-09-30T08:22:36.019Z,3.73
2018-09-30T08:25:06.431Z,3.40
2018-09-30T08:27:36.830Z,4.00
2018-09-30T08:30:07.241Z,3.70
2018-09-30T08:32:37.625Z,3.47
2018-09-30T08:35:08.011Z,3.77
2018-09-30T08:37:38.356Z,3.57
2018-09-30T08:40:09.509Z,3.97
2018-09-30T08:42:47.040Z,4.03
2018-09-30T08:45:17.440Z,3.87
2018-09-30T08:47:50.387Z,4.30
2018-09-30T08:50:20.965Z,4.10
2018-09-30T08:52:51.347Z,4.30
2018-09-30T08:55:21.740Z,4.10
2018-09-30T08:57:53.188Z,4.13
2018-09-30T09:00:23.588Z,3.70
2018-09-30T09:02:54.030Z,4.10
2018-09-30T09:05:24.405Z,4.13
2018-09-30T09:07:54.807Z,4.17
2018-09-30T09:10:26.172Z,4.10
2018-09-30T09:12:57.324Z,3.90
2018-09-30T09:15:30.659Z,3.43
2018-09-30T09:18:03.946Z,3.70
2018-09-30T09:20:35.599Z,3.80
2018-09-30T09:23:04.752Z,3.60
2018-09-30T09:25:35.150Z,3.73
2018-09-30T09:28:06.669Z,3.90
2018-09-30T09:30:39.762Z,3.03
2018-09-30T09:33:10.993Z,4.10
2018-09-30T09:35:45.445Z,3.40
2018-09-30T09:38:15.873Z,3.60
2018-09-30T09:40:46.270Z,2.60
2018-09-30T09:43:16.684Z,3.03
2018-09-30T09:45:47.069Z,2.30
2018-09-30T09:48:19.519Z,2.93
2018-09-30T09:50:49.925Z,3.30
2018-09-30T09:53:21.070Z,2.60
2018-09-30T09:55:51.467Z,4.17
2018-09-30T09:58:30.583Z,2.60
2018-09-30T10:01:07.490Z,2.40
2018-09-30T10:03:37.882Z,2.70
2018-09-30T10:06:14.422Z,2.60
2018-09-30T10:08:45.561Z,2.37
2018-09-30T10:11:16.139Z,3.00
2018-09-30T10:13:53.847Z,3.47
2018-09-30T10:16:24.259Z,3.13
2018-09-30T10:18:57.506Z,3.10
2018-09-30T10:21:28.682Z,2.70
2018-09-30T10:24:06.398Z,2.77
2018-09-30T10:26:38.871Z,2.90
2018-09-30T10:29:11.304Z,2.63
2018-09-30T10:31:42.458Z,2.80
2018-09-30T10:34:12.917Z,2.37
2018-09-30T10:36:46.998Z,3.30
2018-09-30T10:39:18.897Z,2.90
2018-09-30T10:41:48.944Z,2.87
2018-09-30T10:44:19.348Z,2.50
2018-09-30T10:46:49.676Z,2.27
2018-09-30T10:49:21.588Z,1.77
2018-09-30T10:51:51.992Z,2.63
2018-09-30T10:57:20.824Z,2.47
2018-09-30T10:59:53.853Z,2.57
2018-09-30T11:02:25.276Z,3.03
2018-09-30T11:04:58.413Z,2.40
2018-09-30T11:07:28.808Z,2.50
2018-09-30T11:10:00.183Z,3.23
2018-09-30T11:12:30.537Z,2.77
2018-09-30T11:15:01.700Z,2.77
2018-09-30T11:17:32.156Z,2.97
2018-09-30T11:20:03.590Z,3.27
2018-09-30T11:22:34.063Z,2.97
2018-09-30T11:25:07.540Z,3.17
2018-09-30T11:27:44.859Z,2.50
2018-09-30T11:30:15.232Z,3.43
2018-09-30T11:32:45.614Z,2.53
2018-09-30T11:35:16.020Z,3.00
2018-09-30T11:38:05.771Z,3.07
2018-09-30T11:40:36.243Z,3.07
2018-09-30T11:43:09.332Z,3.10
2018-09-30T11:45:39.706Z,2.77
2018-09-30T11:48:10.094Z,3.13
2018-09-30T11:50:40.488Z,2.73
2018-09-30T11:53:10.880Z,2.73
2018-09-30T11:55:41.289Z,2.20
2018-09-30T11:58:11.675Z,2.73
2018-09-30T12:00:43.080Z,2.27
2018-09-30T12:03:13.496Z,2.60
2018-09-30T12:05:44.587Z,2.40
2018-09-30T12:08:21.120Z,2.27
2018-09-30T12:10:52.201Z,2.63
2018-09-30T12:13:29.893Z,2.57
2018-09-30T12:16:04.390Z,2.70
2018-09-30T12:18:37.325Z,2.63
2018-09-30T12:21:12.964Z,2.40
2018-09-30T12:23:49.873Z,2.50
2018-09-30T12:26:20.192Z,2.13
2018-09-30T12:28:50.585Z,2.13
2018-09-30T12:31:20.996Z,3.03
2018-09-30T12:33:53.871Z,2.90
2018-09-30T12:36:24.252Z,2.10
2018-09-30T12:38:54.649Z,1.97
2018-09-30T12:41:27.072Z,1.93
2018-09-30T12:43:57.459Z,2.17
2018-09-30T12:46:28.867Z,2.23
2018-09-30T12:48:59.956Z,2.30
2018-09-30T12:51:30.334Z,2.53
2018-09-30T12:54:01.512Z,2.27
2018-09-30T12:56:34.960Z,2.67
2018-09-30T12:59:05.354Z,2.30
2018-09-30T13:01:37.792Z,2.70
2018-09-30T13:04:08.184Z,2.87
2018-09-30T13:06:38.564Z,2.50
2018-09-30T13:09:11.016Z,2.80
2018-09-30T13:11:41.332Z,2.60
2018-09-30T13:14:12.481Z,2.83
2018-09-30T13:16:43.657Z,3.13
2018-09-30T13:19:18.122Z,2.43
2018-09-30T13:21:48.497Z,2.63
2018-09-30T13:24:20.952Z,3.07
2018-09-30T13:26:53.377Z,2.80
2018-09-30T13:29:23.776Z,2.57
2018-09-30T13:31:54.194Z,3.20
2018-09-30T13:34:24.576Z,2.83
2018-09-30T13:36:54.960Z,3.03
2018-09-30T13:39:29.440Z,2.80
2018-09-30T13:42:00.603Z,3.03
2018-09-30T13:44:30.989Z,3.20
2018-09-30T13:47:01.328Z,2.77
2018-09-30T13:49:31.701Z,2.90
2018-09-30T13:52:02.099Z,2.77
2018-09-30T13:54:32.504Z,2.73
2018-09-30T13:57:03.641Z,2.73
2018-09-30T13:59:34.021Z,2.67
2018-09-30T14:02:04.421Z,2.70
2018-09-30T14:04:35.588Z,2.60
2018-09-30T14:07:08.933Z,3.07
2018-09-30T14:09:39.173Z,2.77
2018-09-30T14:12:10.315Z,3.10
2018-09-30T14:14:41.474Z,3.77
2018-09-30T14:19:56.362Z,3.13
2018-09-30T14:22:31.557Z,3.03
2018-09-30T14:25:01.946Z,3.13
2018-09-30T14:27:35.274Z,2.30
2018-09-30T14:30:12.622Z,3.20
2018-09-30T14:32:43.023Z,2.40
2018-09-30T14:35:16.654Z,2.77
2018-09-30T14:37:47.059Z,3.17
2018-09-30T14:40:20.901Z,3.20
2018-09-30T14:42:53.963Z,2.50
2018-09-30T14:45:25.138Z,2.70
2018-09-30T14:47:55.501Z,2.80
2018-09-30T14:50:25.899Z,2.47
2018-09-30T14:53:15.653Z,2.73
2018-09-30T14:55:46.053Z,2.43
2018-09-30T14:58:17.222Z,2.50
2018-09-30T15:00:47.601Z,1.97
2018-09-30T15:03:20.862Z,2.80
2018-09-30T15:05:56.874Z,2.73
2018-09-30T15:08:30.261Z,2.13
2018-09-30T15:11:03.176Z,3.10
2018-09-30T15:13:33.500Z,2.60
2018-09-30T15:16:03.911Z,4.40
2018-09-30T15:18:42.414Z,3.50
2018-09-30T15:21:12.807Z,3.00
2018-09-30T15:23:43.187Z,3.50
2018-09-30T15:26:13.581Z,3.33
2018-09-30T15:28:48.099Z,3.20
2018-09-30T15:31:25.642Z,2.90
2018-09-30T15:33:59.383Z,3.23
2018-09-30T15:36:29.771Z,2.63
2018-09-30T15:39:06.089Z,2.90
2018-09-30T15:41:43.799Z,2.37
2018-09-30T15:44:21.507Z,2.90
2018-09-30T15:46:51.902Z,2.90
2018-09-30T15:49:24.748Z,2.53
2018-09-30T15:51:58.324Z,2.30
2018-09-30T15:54:28.712Z,2.70
2018-09-30T15:57:04.405Z,2.57
2018-09-30T15:59:37.208Z,2.20
2018-09-30T16:02:08.338Z,2.30
2018-09-30T16:04:41.404Z,1.70
2018-09-30T16:07:14.312Z,2.70
2018-09-30T16:09:44.632Z,2.40
2018-09-30T16:12:15.038Z,2.63
2018-09-30T16:14:52.212Z,2.53
2018-09-30T16:17:31.139Z,2.23
2018-09-30T16:20:04.206Z,2.90
2018-09-30T16:22:34.601Z,3.00
2018-09-30T16:25:07.737Z,2.80
2018-09-30T16:27:38.058Z,2.77
2018-09-30T16:30:11.367Z,3.37
2018-09-30T16:32:41.758Z,2.80
2018-09-30T16:38:01.841Z,2.60
2018-09-30T16:40:32.220Z,3.10
2018-09-30T16:43:02.544Z,2.83
2018-09-30T16:45:32.954Z,2.60
2018-09-30T16:48:06.033Z,3.40
2018-09-30T16:50:46.090Z,3.00
2018-09-30T16:53:16.437Z,2.43
2018-09-30T16:55:50.608Z,2.40
2018-09-30T16:58:21.002Z,2.90
2018-09-30T17:00:52.419Z,2.77
2018-09-30T17:03:22.810Z,2.60
2018-09-30T17:05:53.196Z,2.70
2018-09-30T17:08:30.900Z,2.60
2018-09-30T17:11:21.694Z,3.17
2018-09-30T17:13:58.248Z,2.70
2018-09-30T17:16:28.656Z,2.70
2018-09-30T17:18:59.802Z,2.60
2018-09-30T17:21:33.685Z,2.40
2018-09-30T17:24:04.055Z,2.60
2018-09-30T17:26:34.441Z,2.80
2018-09-30T17:29:04.826Z,2.90
2018-09-30T17:31:35.229Z,2.70
2018-09-30T17:34:05.609Z,3.17
2018-09-30T17:36:36.006Z,3.83
2018-09-30T17:39:18.145Z,2.93
2018-09-30T17:41:48.535Z,2.80
2018-09-30T17:44:26.161Z,2.37
2018-09-30T17:46:57.506Z,2.70
2018-09-30T17:49:27.882Z,2.60
2018-09-30T17:51:58.278Z,2.63
2018-09-30T17:54:28.670Z,2.83
2018-09-30T17:57:21.231Z,2.90
2018-09-30T17:59:51.645Z,3.20
2018-09-30T18:02:43.442Z,3.10
2018-09-30T18:05:13.852Z,3.85
2018-09-30T18:07:45.007Z,3.10
2018-09-30T18:10:15.401Z,2.63
2018-09-30T18:12:48.618Z,3.20
2018-09-30T18:15:19.195Z,2.87
2018-09-30T18:17:53.027Z,2.90
2018-09-30T18:20:23.691Z,2.87
2018-09-30T18:22:54.061Z,3.30
2018-09-30T18:25:44.775Z,3.00
2018-09-30T18:28:15.161Z,3.40
2018-09-30T18:30:48.604Z,3.50
2018-09-30T18:33:18.995Z,3.20
2018-09-30T18:35:52.044Z,3.80
2018-09-30T18:38:22.346Z,2.97
2018-09-30T18:40:52.756Z,3.07
2018-09-30T18:43:25.753Z,3.30
2018-09-30T18:45:56.149Z,3.60
2018-09-30T18:48:26.541Z,3.10
2018-09-30T18:51:00.362Z,3.60
2018-09-30T18:53:30.744Z,3.27
2018-09-30T18:56:01.274Z,3.40
2018-09-30T18:58:31.448Z,3.10
2018-09-30T19:01:01.835Z,3.13
2018-09-30T19:03:32.225Z,3.03
2018-09-30T19:06:08.680Z,3.37
2018-09-30T19:08:39.086Z,3.50
2018-09-30T19:11:09.414Z,3.00
2018-09-30T19:13:39.796Z,3.20
2018-09-30T19:16:12.961Z,3.03
2018-09-30T19:18:45.275Z,2.60
2018-09-30T19:21:15.659Z,2.70
2018-09-30T19:23:48.100Z,2.73
2018-09-30T19:26:18.482Z,3.00
2018-09-30T19:28:48.873Z,2.90
2018-09-30T19:31:19.263Z,3.57
2018-09-30T19:33:50.407Z,3.53
2018-09-30T19:36:20.848Z,3.30
2018-09-30T19:39:11.573Z,3.10
2018-09-30T19:41:44.935Z,3.00
2018-09-30T19:44:15.996Z,3.33
2018-09-30T19:49:38.816Z,3.00
2018-09-30T19:52:14.556Z,2.50
2018-09-30T19:55:07.123Z,2.23
2018-09-30T19:57:38.281Z,2.50
2018-09-30T20:00:11.053Z,3.03
2018-09-30T20:02:44.421Z,3.13
2018-09-30T20:05:40.859Z,3.00
2018-09-30T20:08:31.583Z,2.87
2018-09-30T20:11:01.960Z,2.37
2018-09-30T20:13:37.198Z,3.33
2018-09-30T20:16:08.352Z,2.97
2018-09-30T20:18:38.729Z,2.63
2018-09-30T20:21:11.948Z,3.17
2018-09-30T20:23:43.085Z,2.87
2018-09-30T20:26:14.234Z,2.77
2018-09-30T20:28:48.186Z,2.80
2018-09-30T20:31:21.305Z,2.53
2018-09-30T20:33:54.582Z,3.20
2018-09-30T20:36:26.996Z,3.03
2018-09-30T20:39:00.922Z,2.97
2018-09-30T20:41:32.081Z,2.70
2018-09-30T20:44:03.492Z,3.10
2018-09-30T20:46:36.639Z,2.63
2018-09-30T20:49:09.564Z,2.80
2018-09-30T20:51:39.949Z,3.00
2018-09-30T20:54:10.341Z,2.73
2018-09-30T20:56:41.492Z,2.90
2018-09-30T20:59:12.647Z,2.63
2018-09-30T21:01:43.028Z,2.70
2018-09-30T21:04:13.352Z,2.73
2018-09-30T21:06:46.177Z,2.47
2018-09-30T21:09:16.547Z,2.23
2018-09-30T21:11:54.987Z,2.33
2018-09-30T21:14:25.311Z,2.03
2018-09-30T21:16:55.703Z,2.40
2018-09-30T21:19:32.448Z,2.30
2018-09-30T21:22:02.838Z,2.73
2018-09-30T21:24:33.226Z,2.20
2018-09-30T21:27:07.722Z,2.33
2018-09-30T21:29:39.126Z,2.43
2018-09-30T21:32:09.503Z,2.50
2018-09-30T21:34:39.894Z,2.77
2018-09-30T21:37:10.274Z,2.63
2018-09-30T21:39:40.648Z,1.83
2018-09-30T21:42:11.061Z,2.27
2018-09-30T21:44:41.439Z,2.50
2018-09-30T21:47:11.831Z,2.60
2018-09-30T21:49:42.222Z,2.30
2018-09-30T21:52:35.807Z,2.63
2018-09-30T21:55:06.243Z,2.40
2018-09-30T21:57:36.588Z,2.83
2018-09-30T22:00:07.721Z,2.70
2018-09-30T22:02:38.065Z,2.50
2018-09-30T22:05:09.204Z,2.97
2018-09-30T22:07:39.578Z,3.00
2018-09-30T22:10:29.334Z,2.63
2018-09-30T22:12:59.709Z,2.90
2018-09-30T22:15:30.091Z,2.63
2018-09-30T22:18:00.492Z,2.97
2018-09-30T22:20:30.877Z,2.97
2018-09-30T22:23:02.489Z,2.87
2018-09-30T22:25:33.114Z,2.83
2018-09-30T22:28:04.259Z,2.87
2018-09-30T22:30:35.408Z,2.80
2018-09-30T22:33:05.797Z,2.53
2018-09-30T22:35:36.190Z,2.83
2018-09-30T22:38:13.762Z,3.37
2018-09-30T22:40:44.898Z,2.77
2018-09-30T22:43:15.275Z,3.00
2018-09-30T22:45:45.667Z,3.30
2018-09-30T22:48:16.047Z,2.80
2018-09-30T22:50:46.424Z,2.63
2018-09-30T22:53:16.892Z,2.83
2018-09-30T22:55:47.957Z,2.70
2018-09-30T22:58:19.116Z,2.60
2018-09-30T23:00:49.577Z,3.00
2018-09-30T23:03:19.968Z,3.00
2018-09-30T23:05:51.112Z,3.30
2018-09-30T23:08:22.462Z,2.77
2018-09-30T23:10:53.554Z,2.63
2018-09-30T23:13:45.109Z,3.00
2018-09-30T23:16:15.504Z,2.83
2018-09-30T23:19:05.265Z,2.90
2018-09-30T23:21:35.649Z,2.50
2018-09-30T23:24:06.032Z,3.00
2018-09-30T23:26:36.433Z,3.17
2018-09-30T23:29:06.825Z,2.93
2018-09-30T23:31:37.980Z,2.80
2018-09-30T23:34:09.152Z,3.37
2018-09-30T23:36:39.545Z,2.90
2018-09-30T23:39:10.910Z,3.23
2018-09-30T23:41:41.251Z,2.77
2018-09-30T23:44:11.630Z,2.80
2018-09-30T23:46:41.941Z,2.90
2018-09-30T23:49:12.619Z,3.00
2018-09-30T23:51:43.761Z,2.80
2018-09-30T23:54:14.903Z,2.67
2018-09-30T23:56:45.996Z,2.63
2018-09-30T23:59:35.746Z,3.43
